sensor_id;sensor_type;location;lat;lon;timestamp;P1;durP1;ratioP1;P2;durP2;ratioP2
59856;SDS011;45733;52.668;6.860;2023-03-31T00:01:33;0.60;;;0.60;;
59856;SDS011;45733;52.668;6.860;2023-03-31T00:04:00;0.60;;;0.60;;
59856;SDS011;45733;52.668;6.860;2023-03-31T00:06:29;0.60;;;0.60;;
59856;SDS011;45733;52.668;6.860;2023-03-31T00:09:15;0.60;;;0.60;;
59856;SDS011;45733;52.668;6.860;2023-03-31T00:11:46;0.60;;;0.60;;
59856;SDS011;45733;52.668;6.860;2023-03-31T00:14:13;0.60;;;0.60;;
59856;SDS011;45733;52.668;6.860;2023-03-31T00:16:41;0.60;;;0.60;;
59856;SDS011;45733;52.668;6.860;2023-03-31T00:19:06;0.60;;;0.60;;
59856;SDS011;45733;52.668;6.860;2023-03-31T00:21:37;0.60;;;0.60;;
59856;SDS011;45733;52.668;6.860;2023-03-31T00:24:03;0.60;;;0.60;;
59856;SDS011;45733;52.668;6.860;2023-03-31T00:26:31;0.60;;;0.60;;
59856;SDS011;45733;52.668;6.860;2023-03-31T00:28:58;0.60;;;0.60;;
59856;SDS011;45733;52.668;6.860;2023-03-31T00:31:25;0.60;;;0.60;;
59856;SDS011;45733;52.668;6.860;2023-03-31T00:33:51;0.68;;;0.68;;
59856;SDS011;45733;52.668;6.860;2023-03-31T00:36:18;0.70;;;0.70;;
59856;SDS011;45733;52.668;6.860;2023-03-31T00:38:51;0.77;;;0.77;;
59856;SDS011;45733;52.668;6.860;2023-03-31T00:41:23;0.70;;;0.70;;
59856;SDS011;45733;52.668;6.860;2023-03-31T00:49:34;0.80;;;0.80;;
59856;SDS011;45733;52.668;6.860;2023-03-31T00:52:15;0.80;;;0.80;;
59856;SDS011;45733;52.668;6.860;2023-03-31T00:54:47;0.80;;;0.80;;
59856;SDS011;45733;52.668;6.860;2023-03-31T00:57:20;0.80;;;0.80;;
59856;SDS011;45733;52.668;6.860;2023-03-31T00:59:51;0.80;;;0.80;;
59856;SDS011;45733;52.668;6.860;2023-03-31T01:02:21;0.80;;;0.80;;
59856;SDS011;45733;52.668;6.860;2023-03-31T01:04:51;0.80;;;0.80;;
59856;SDS011;45733;52.668;6.860;2023-03-31T01:07:41;0.80;;;0.80;;
59856;SDS011;45733;52.668;6.860;2023-03-31T01:10:10;0.80;;;0.80;;
59856;SDS011;45733;52.668;6.860;2023-03-31T01:12:37;0.80;;;0.80;;
59856;SDS011;45733;52.668;6.860;2023-03-31T01:15:07;0.80;;;0.80;;
59856;SDS011;45733;52.668;6.860;2023-03-31T01:17:33;0.80;;;0.80;;
59856;SDS011;45733;52.668;6.860;2023-03-31T01:34:02;0.80;;;0.80;;
59856;SDS011;45733;52.668;6.860;2023-03-31T01:36:55;0.77;;;0.77;;
59856;SDS011;45733;52.668;6.860;2023-03-31T01:45:22;0.80;;;0.80;;
59856;SDS011;45733;52.668;6.860;2023-03-31T01:48:20;0.80;;;0.80;;
59856;SDS011;45733;52.668;6.860;2023-03-31T01:51:15;0.80;;;0.80;;
59856;SDS011;45733;52.668;6.860;2023-03-31T01:53:50;0.90;;;0.90;;
59856;SDS011;45733;52.668;6.860;2023-03-31T01:56:25;0.80;;;0.80;;
59856;SDS011;45733;52.668;6.860;2023-03-31T01:59:07;0.80;;;0.80;;
59856;SDS011;45733;52.668;6.860;2023-03-31T02:01:52;0.80;;;0.80;;
59856;SDS011;45733;52.668;6.860;2023-03-31T02:04:26;0.90;;;0.90;;
59856;SDS011;45733;52.668;6.860;2023-03-31T02:06:57;0.80;;;0.80;;
59856;SDS011;45733;52.668;6.860;2023-03-31T02:09:29;0.80;;;0.80;;
59856;SDS011;45733;52.668;6.860;2023-03-31T02:11:59;0.80;;;0.80;;
59856;SDS011;45733;52.668;6.860;2023-03-31T02:14:31;0.80;;;0.80;;
59856;SDS011;45733;52.668;6.860;2023-03-31T02:17:00;0.80;;;0.80;;
59856;SDS011;45733;52.668;6.860;2023-03-31T02:19:31;0.80;;;0.80;;
59856;SDS011;45733;52.668;6.860;2023-03-31T02:22:04;0.90;;;0.90;;
59856;SDS011;45733;52.668;6.860;2023-03-31T02:24:32;0.80;;;0.80;;
59856;SDS011;45733;52.668;6.860;2023-03-31T02:27:05;0.88;;;0.88;;
59856;SDS011;45733;52.668;6.860;2023-03-31T02:29:52;0.80;;;0.80;;
59856;SDS011;45733;52.668;6.860;2023-03-31T02:32:24;0.80;;;0.80;;
59856;SDS011;45733;52.668;6.860;2023-03-31T02:34:59;0.80;;;0.80;;
59856;SDS011;45733;52.668;6.860;2023-03-31T02:37:25;0.90;;;0.90;;
59856;SDS011;45733;52.668;6.860;2023-03-31T02:39:53;0.90;;;0.90;;
59856;SDS011;45733;52.668;6.860;2023-03-31T02:42:22;0.80;;;0.80;;
59856;SDS011;45733;52.668;6.860;2023-03-31T02:44:49;0.80;;;0.80;;
59856;SDS011;45733;52.668;6.860;2023-03-31T02:47:16;0.80;;;0.80;;
59856;SDS011;45733;52.668;6.860;2023-03-31T02:49:46;0.90;;;0.90;;
59856;SDS011;45733;52.668;6.860;2023-03-31T02:57:56;0.90;;;0.90;;
59856;SDS011;45733;52.668;6.860;2023-03-31T03:03:12;0.80;;;0.80;;
59856;SDS011;45733;52.668;6.860;2023-03-31T03:05:57;0.80;;;0.80;;
59856;SDS011;45733;52.668;6.860;2023-03-31T03:11:49;0.80;;;0.80;;
59856;SDS011;45733;52.668;6.860;2023-03-31T03:17:17;0.80;;;0.80;;
59856;SDS011;45733;52.668;6.860;2023-03-31T03:19:55;0.90;;;0.90;;
59856;SDS011;45733;52.668;6.860;2023-03-31T03:22:25;0.80;;;0.80;;
59856;SDS011;45733;52.668;6.860;2023-03-31T03:24:51;0.88;;;0.88;;
59856;SDS011;45733;52.668;6.860;2023-03-31T03:27:18;0.90;;;0.90;;
59856;SDS011;45733;52.668;6.860;2023-03-31T03:29:46;0.82;;;0.82;;
59856;SDS011;45733;52.668;6.860;2023-03-31T03:32:12;0.85;;;0.85;;
59856;SDS011;45733;52.668;6.860;2023-03-31T03:34:38;0.95;;;0.95;;
59856;SDS011;45733;52.668;6.860;2023-03-31T03:37:04;0.90;;;0.90;;
59856;SDS011;45733;52.668;6.860;2023-03-31T03:39:30;0.80;;;0.80;;
59856;SDS011;45733;52.668;6.860;2023-03-31T03:41:56;0.80;;;0.80;;
59856;SDS011;45733;52.668;6.860;2023-03-31T03:44:22;0.80;;;0.80;;
59856;SDS011;45733;52.668;6.860;2023-03-31T03:46:47;0.80;;;0.80;;
59856;SDS011;45733;52.668;6.860;2023-03-31T03:49:13;0.80;;;0.80;;
59856;SDS011;45733;52.668;6.860;2023-03-31T03:51:39;0.90;;;0.90;;
59856;SDS011;45733;52.668;6.860;2023-03-31T03:54:04;0.90;;;0.90;;
59856;SDS011;45733;52.668;6.860;2023-03-31T03:56:30;0.90;;;0.90;;
59856;SDS011;45733;52.668;6.860;2023-03-31T03:58:56;0.90;;;0.90;;
59856;SDS011;45733;52.668;6.860;2023-03-31T04:01:22;0.88;;;0.88;;
59856;SDS011;45733;52.668;6.860;2023-03-31T04:03:47;0.90;;;0.90;;
59856;SDS011;45733;52.668;6.860;2023-03-31T04:06:13;0.90;;;0.90;;
59856;SDS011;45733;52.668;6.860;2023-03-31T04:08:39;0.90;;;0.90;;
59856;SDS011;45733;52.668;6.860;2023-03-31T04:11:15;0.90;;;0.90;;
59856;SDS011;45733;52.668;6.860;2023-03-31T04:13:42;0.90;;;0.90;;
59856;SDS011;45733;52.668;6.860;2023-03-31T04:16:08;0.90;;;0.90;;
59856;SDS011;45733;52.668;6.860;2023-03-31T04:18:34;0.90;;;0.90;;
59856;SDS011;45733;52.668;6.860;2023-03-31T04:21:01;0.98;;;0.98;;
59856;SDS011;45733;52.668;6.860;2023-03-31T04:23:31;0.90;;;0.90;;
59856;SDS011;45733;52.668;6.860;2023-03-31T04:25:57;0.90;;;0.90;;
59856;SDS011;45733;52.668;6.860;2023-03-31T04:28:23;1.00;;;1.00;;
59856;SDS011;45733;52.668;6.860;2023-03-31T04:30:51;0.90;;;0.90;;
59856;SDS011;45733;52.668;6.860;2023-03-31T04:33:19;0.95;;;0.95;;
59856;SDS011;45733;52.668;6.860;2023-03-31T04:35:45;1.00;;;1.00;;
59856;SDS011;45733;52.668;6.860;2023-03-31T04:38:14;1.00;;;1.00;;
59856;SDS011;45733;52.668;6.860;2023-03-31T04:40:43;0.90;;;0.90;;
59856;SDS011;45733;52.668;6.860;2023-03-31T04:43:10;1.00;;;1.00;;
59856;SDS011;45733;52.668;6.860;2023-03-31T04:45:35;1.00;;;1.00;;
59856;SDS011;45733;52.668;6.860;2023-03-31T04:48:01;0.90;;;0.90;;
59856;SDS011;45733;52.668;6.860;2023-03-31T04:50:27;0.90;;;0.90;;
59856;SDS011;45733;52.668;6.860;2023-03-31T04:52:53;0.90;;;0.90;;
59856;SDS011;45733;52.668;6.860;2023-03-31T04:55:18;0.90;;;0.90;;
59856;SDS011;45733;52.668;6.860;2023-03-31T04:57:44;1.00;;;1.00;;
59856;SDS011;45733;52.668;6.860;2023-03-31T05:00:10;1.00;;;1.00;;
59856;SDS011;45733;52.668;6.860;2023-03-31T05:02:36;1.00;;;1.00;;
59856;SDS011;45733;52.668;6.860;2023-03-31T05:05:01;1.00;;;1.00;;
59856;SDS011;45733;52.668;6.860;2023-03-31T05:07:28;1.00;;;1.00;;
59856;SDS011;45733;52.668;6.860;2023-03-31T05:09:54;1.00;;;1.00;;
59856;SDS011;45733;52.668;6.860;2023-03-31T05:12:19;1.00;;;1.00;;
59856;SDS011;45733;52.668;6.860;2023-03-31T05:14:45;1.00;;;1.00;;
59856;SDS011;45733;52.668;6.860;2023-03-31T05:17:11;1.02;;;1.02;;
59856;SDS011;45733;52.668;6.860;2023-03-31T05:19:36;1.05;;;1.05;;
59856;SDS011;45733;52.668;6.860;2023-03-31T05:22:02;1.00;;;1.00;;
59856;SDS011;45733;52.668;6.860;2023-03-31T05:24:28;0.95;;;0.95;;
59856;SDS011;45733;52.668;6.860;2023-03-31T05:26:54;1.00;;;1.00;;
59856;SDS011;45733;52.668;6.860;2023-03-31T05:29:21;1.00;;;1.00;;
59856;SDS011;45733;52.668;6.860;2023-03-31T05:31:48;0.90;;;0.90;;
59856;SDS011;45733;52.668;6.860;2023-03-31T05:34:14;1.00;;;1.00;;
59856;SDS011;45733;52.668;6.860;2023-03-31T05:36:40;1.02;;;1.02;;
59856;SDS011;45733;52.668;6.860;2023-03-31T05:39:07;1.00;;;1.00;;
59856;SDS011;45733;52.668;6.860;2023-03-31T05:41:33;1.00;;;1.00;;
59856;SDS011;45733;52.668;6.860;2023-03-31T05:43:59;1.00;;;1.00;;
59856;SDS011;45733;52.668;6.860;2023-03-31T05:46:26;1.00;;;1.00;;
59856;SDS011;45733;52.668;6.860;2023-03-31T05:48:52;1.00;;;1.00;;
59856;SDS011;45733;52.668;6.860;2023-03-31T05:51:18;1.00;;;1.00;;
59856;SDS011;45733;52.668;6.860;2023-03-31T05:53:43;1.00;;;1.00;;
59856;SDS011;45733;52.668;6.860;2023-03-31T05:56:09;1.00;;;1.00;;
59856;SDS011;45733;52.668;6.860;2023-03-31T05:58:36;1.10;;;1.10;;
59856;SDS011;45733;52.668;6.860;2023-03-31T06:01:06;1.08;;;1.08;;
59856;SDS011;45733;52.668;6.860;2023-03-31T06:03:34;1.10;;;1.10;;
59856;SDS011;45733;52.668;6.860;2023-03-31T06:06:02;1.00;;;1.00;;
59856;SDS011;45733;52.668;6.860;2023-03-31T06:08:29;1.02;;;1.02;;
59856;SDS011;45733;52.668;6.860;2023-03-31T06:10:55;1.10;;;1.10;;
59856;SDS011;45733;52.668;6.860;2023-03-31T06:13:21;1.00;;;1.00;;
59856;SDS011;45733;52.668;6.860;2023-03-31T06:15:54;1.00;;;1.00;;
59856;SDS011;45733;52.668;6.860;2023-03-31T06:18:20;1.00;;;1.00;;
59856;SDS011;45733;52.668;6.860;2023-03-31T06:20:46;1.00;;;1.00;;
59856;SDS011;45733;52.668;6.860;2023-03-31T06:23:12;1.00;;;1.00;;
59856;SDS011;45733;52.668;6.860;2023-03-31T06:25:38;1.00;;;1.00;;
59856;SDS011;45733;52.668;6.860;2023-03-31T06:28:04;1.08;;;1.08;;
59856;SDS011;45733;52.668;6.860;2023-03-31T06:30:32;1.00;;;1.00;;
59856;SDS011;45733;52.668;6.860;2023-03-31T06:32:58;1.05;;;1.05;;
59856;SDS011;45733;52.668;6.860;2023-03-31T06:35:24;0.95;;;0.95;;
59856;SDS011;45733;52.668;6.860;2023-03-31T06:37:50;1.02;;;1.02;;
59856;SDS011;45733;52.668;6.860;2023-03-31T06:40:16;1.00;;;1.00;;
59856;SDS011;45733;52.668;6.860;2023-03-31T06:42:42;1.00;;;1.00;;
59856;SDS011;45733;52.668;6.860;2023-03-31T06:45:08;1.00;;;1.00;;
59856;SDS011;45733;52.668;6.860;2023-03-31T06:47:34;1.10;;;1.10;;
59856;SDS011;45733;52.668;6.860;2023-03-31T06:50:02;1.08;;;1.08;;
59856;SDS011;45733;52.668;6.860;2023-03-31T06:52:29;1.00;;;1.00;;
59856;SDS011;45733;52.668;6.860;2023-03-31T06:54:56;1.00;;;1.00;;
59856;SDS011;45733;52.668;6.860;2023-03-31T06:57:21;1.00;;;1.00;;
59856;SDS011;45733;52.668;6.860;2023-03-31T06:59:47;1.00;;;1.00;;
59856;SDS011;45733;52.668;6.860;2023-03-31T07:02:13;0.95;;;0.95;;
59856;SDS011;45733;52.668;6.860;2023-03-31T07:04:38;0.90;;;0.90;;
59856;SDS011;45733;52.668;6.860;2023-03-31T07:07:04;1.00;;;1.00;;
59856;SDS011;45733;52.668;6.860;2023-03-31T07:09:30;1.00;;;1.00;;
59856;SDS011;45733;52.668;6.860;2023-03-31T07:11:55;0.90;;;0.90;;
59856;SDS011;45733;52.668;6.860;2023-03-31T07:14:21;1.00;;;1.00;;
59856;SDS011;45733;52.668;6.860;2023-03-31T07:16:47;1.00;;;1.00;;
59856;SDS011;45733;52.668;6.860;2023-03-31T07:19:14;0.90;;;0.90;;
59856;SDS011;45733;52.668;6.860;2023-03-31T07:21:40;1.00;;;1.00;;
59856;SDS011;45733;52.668;6.860;2023-03-31T07:24:06;0.90;;;0.90;;
59856;SDS011;45733;52.668;6.860;2023-03-31T07:26:31;0.98;;;0.98;;
59856;SDS011;45733;52.668;6.860;2023-03-31T07:28:57;1.00;;;1.00;;
59856;SDS011;45733;52.668;6.860;2023-03-31T07:31:23;0.90;;;0.90;;
59856;SDS011;45733;52.668;6.860;2023-03-31T07:33:49;1.00;;;1.00;;
59856;SDS011;45733;52.668;6.860;2023-03-31T07:36:15;0.90;;;0.90;;
59856;SDS011;45733;52.668;6.860;2023-03-31T07:38:41;1.00;;;1.00;;
59856;SDS011;45733;52.668;6.860;2023-03-31T07:41:12;0.90;;;0.90;;
59856;SDS011;45733;52.668;6.860;2023-03-31T07:43:39;0.90;;;0.90;;
59856;SDS011;45733;52.668;6.860;2023-03-31T07:46:05;0.90;;;0.90;;
59856;SDS011;45733;52.668;6.860;2023-03-31T07:48:32;0.90;;;0.90;;
59856;SDS011;45733;52.668;6.860;2023-03-31T07:50:58;0.98;;;0.98;;
59856;SDS011;45733;52.668;6.860;2023-03-31T07:53:24;0.93;;;0.93;;
59856;SDS011;45733;52.668;6.860;2023-03-31T07:55:50;0.95;;;0.95;;
59856;SDS011;45733;52.668;6.860;2023-03-31T07:58:15;0.90;;;0.90;;
59856;SDS011;45733;52.668;6.860;2023-03-31T08:00:41;0.90;;;0.90;;
59856;SDS011;45733;52.668;6.860;2023-03-31T08:03:07;0.98;;;0.98;;
59856;SDS011;45733;52.668;6.860;2023-03-31T08:05:33;0.90;;;0.90;;
59856;SDS011;45733;52.668;6.860;2023-03-31T08:07:58;0.90;;;0.90;;
59856;SDS011;45733;52.668;6.860;2023-03-31T08:10:25;0.90;;;0.90;;
59856;SDS011;45733;52.668;6.860;2023-03-31T08:12:51;0.80;;;0.80;;
59856;SDS011;45733;52.668;6.860;2023-03-31T08:15:18;0.88;;;0.88;;
59856;SDS011;45733;52.668;6.860;2023-03-31T08:17:43;0.90;;;0.90;;
59856;SDS011;45733;52.668;6.860;2023-03-31T08:20:10;0.85;;;0.85;;
59856;SDS011;45733;52.668;6.860;2023-03-31T08:22:36;0.80;;;0.80;;
59856;SDS011;45733;52.668;6.860;2023-03-31T08:25:04;0.80;;;0.80;;
59856;SDS011;45733;52.668;6.860;2023-03-31T08:27:35;0.80;;;0.80;;
59856;SDS011;45733;52.668;6.860;2023-03-31T08:30:04;0.90;;;0.90;;
59856;SDS011;45733;52.668;6.860;2023-03-31T08:32:31;0.80;;;0.80;;
59856;SDS011;45733;52.668;6.860;2023-03-31T08:34:58;0.80;;;0.80;;
59856;SDS011;45733;52.668;6.860;2023-03-31T08:37:24;0.80;;;0.80;;
59856;SDS011;45733;52.668;6.860;2023-03-31T08:39:52;0.80;;;0.80;;
59856;SDS011;45733;52.668;6.860;2023-03-31T08:42:25;0.80;;;0.80;;
59856;SDS011;45733;52.668;6.860;2023-03-31T08:45:25;0.80;;;0.80;;
59856;SDS011;45733;52.668;6.860;2023-03-31T08:48:11;0.88;;;0.88;;
59856;SDS011;45733;52.668;6.860;2023-03-31T08:50:50;0.80;;;0.80;;
59856;SDS011;45733;52.668;6.860;2023-03-31T08:53:24;0.77;;;0.77;;
59856;SDS011;45733;52.668;6.860;2023-03-31T08:55:54;0.80;;;0.80;;
59856;SDS011;45733;52.668;6.860;2023-03-31T09:07:11;0.80;;;0.80;;
59856;SDS011;45733;52.668;6.860;2023-03-31T09:15:25;0.73;;;0.73;;
59856;SDS011;45733;52.668;6.860;2023-03-31T09:18:34;0.85;;;0.85;;
59856;SDS011;45733;52.668;6.860;2023-03-31T09:26:42;0.80;;;0.80;;
59856;SDS011;45733;52.668;6.860;2023-03-31T09:29:13;0.80;;;0.80;;
59856;SDS011;45733;52.668;6.860;2023-03-31T09:31:43;0.73;;;0.73;;
59856;SDS011;45733;52.668;6.860;2023-03-31T09:34:24;0.73;;;0.73;;
59856;SDS011;45733;52.668;6.860;2023-03-31T09:36:52;0.70;;;0.70;;
59856;SDS011;45733;52.668;6.860;2023-03-31T09:39:18;0.70;;;0.70;;
59856;SDS011;45733;52.668;6.860;2023-03-31T09:41:45;0.80;;;0.80;;
59856;SDS011;45733;52.668;6.860;2023-03-31T09:44:58;0.70;;;0.70;;
59856;SDS011;45733;52.668;6.860;2023-03-31T09:47:04;0.73;;;0.73;;
59856;SDS011;45733;52.668;6.860;2023-03-31T09:49:34;0.73;;;0.73;;
59856;SDS011;45733;52.668;6.860;2023-03-31T09:54:49;0.70;;;0.70;;
59856;SDS011;45733;52.668;6.860;2023-03-31T09:57:24;0.70;;;0.70;;
59856;SDS011;45733;52.668;6.860;2023-03-31T09:59:53;0.73;;;0.73;;
59856;SDS011;45733;52.668;6.860;2023-03-31T10:04:57;0.70;;;0.70;;
59856;SDS011;45733;52.668;6.860;2023-03-31T10:07:23;0.70;;;0.70;;
59856;SDS011;45733;52.668;6.860;2023-03-31T10:09:50;0.75;;;0.75;;
59856;SDS011;45733;52.668;6.860;2023-03-31T10:12:18;0.80;;;0.80;;
59856;SDS011;45733;52.668;6.860;2023-03-31T10:14:52;0.75;;;0.75;;
59856;SDS011;45733;52.668;6.860;2023-03-31T10:17:20;0.75;;;0.75;;
59856;SDS011;45733;52.668;6.860;2023-03-31T10:19:57;0.70;;;0.70;;
59856;SDS011;45733;52.668;6.860;2023-03-31T10:22:30;0.70;;;0.70;;
59856;SDS011;45733;52.668;6.860;2023-03-31T10:27:56;0.70;;;0.70;;
59856;SDS011;45733;52.668;6.860;2023-03-31T10:30:27;0.70;;;0.70;;
59856;SDS011;45733;52.668;6.860;2023-03-31T10:32:59;0.70;;;0.70;;
59856;SDS011;45733;52.668;6.860;2023-03-31T10:35:33;0.70;;;0.70;;
59856;SDS011;45733;52.668;6.860;2023-03-31T10:38:05;0.70;;;0.70;;
59856;SDS011;45733;52.668;6.860;2023-03-31T10:40:36;0.70;;;0.70;;
59856;SDS011;45733;52.668;6.860;2023-03-31T10:45:51;0.70;;;0.70;;
59856;SDS011;45733;52.668;6.860;2023-03-31T10:48:27;0.70;;;0.70;;
59856;SDS011;45733;52.668;6.860;2023-03-31T10:50:54;0.80;;;0.80;;
59856;SDS011;45733;52.668;6.860;2023-03-31T10:53:25;0.70;;;0.70;;
59856;SDS011;45733;52.668;6.860;2023-03-31T10:58:53;0.73;;;0.73;;
59856;SDS011;45733;52.668;6.860;2023-03-31T11:01:43;0.60;;;0.60;;
59856;SDS011;45733;52.668;6.860;2023-03-31T11:04:43;0.70;;;0.70;;
59856;SDS011;45733;52.668;6.860;2023-03-31T11:13:02;0.80;;;0.80;;
59856;SDS011;45733;52.668;6.860;2023-03-31T11:18:35;0.70;;;0.70;;
59856;SDS011;45733;52.668;6.860;2023-03-31T11:27:05;0.70;;;0.70;;
59856;SDS011;45733;52.668;6.860;2023-03-31T11:29:39;0.70;;;0.70;;
59856;SDS011;45733;52.668;6.860;2023-03-31T11:32:33;0.73;;;0.73;;
59856;SDS011;45733;52.668;6.860;2023-03-31T11:37:56;0.70;;;0.70;;
59856;SDS011;45733;52.668;6.860;2023-03-31T11:43:26;0.73;;;0.73;;
59856;SDS011;45733;52.668;6.860;2023-03-31T11:46:24;0.70;;;0.70;;
59856;SDS011;45733;52.668;6.860;2023-03-31T11:49:05;0.70;;;0.70;;
59856;SDS011;45733;52.668;6.860;2023-03-31T11:51:42;0.80;;;0.80;;
59856;SDS011;45733;52.668;6.860;2023-03-31T11:57:12;0.63;;;0.63;;
59856;SDS011;45733;52.668;6.860;2023-03-31T11:59:47;0.70;;;0.70;;
59856;SDS011;45733;52.668;6.860;2023-03-31T12:02:20;0.70;;;0.70;;
59856;SDS011;45733;52.668;6.860;2023-03-31T12:04:55;0.65;;;0.65;;
59856;SDS011;45733;52.668;6.860;2023-03-31T12:07:28;0.70;;;0.70;;
59856;SDS011;45733;52.668;6.860;2023-03-31T12:15:22;0.68;;;0.68;;
59856;SDS011;45733;52.668;6.860;2023-03-31T12:18:07;0.70;;;0.70;;
59856;SDS011;45733;52.668;6.860;2023-03-31T12:20:43;0.70;;;0.70;;
59856;SDS011;45733;52.668;6.860;2023-03-31T12:23:16;0.80;;;0.80;;
59856;SDS011;45733;52.668;6.860;2023-03-31T12:29:02;0.70;;;0.70;;
59856;SDS011;45733;52.668;6.860;2023-03-31T12:31:39;0.63;;;0.63;;
59856;SDS011;45733;52.668;6.860;2023-03-31T12:34:13;0.70;;;0.70;;
59856;SDS011;45733;52.668;6.860;2023-03-31T12:39:21;0.70;;;0.70;;
59856;SDS011;45733;52.668;6.860;2023-03-31T12:42:14;0.80;;;0.80;;
59856;SDS011;45733;52.668;6.860;2023-03-31T12:45:06;0.70;;;0.70;;
59856;SDS011;45733;52.668;6.860;2023-03-31T12:53:23;0.60;;;0.60;;
59856;SDS011;45733;52.668;6.860;2023-03-31T12:56:10;0.70;;;0.70;;
59856;SDS011;45733;52.668;6.860;2023-03-31T12:58:37;0.63;;;0.63;;
59856;SDS011;45733;52.668;6.860;2023-03-31T13:06:44;0.63;;;0.63;;
59856;SDS011;45733;52.668;6.860;2023-03-31T13:13:59;0.70;;;0.70;;
59856;SDS011;45733;52.668;6.860;2023-03-31T13:16:29;0.60;;;0.60;;
59856;SDS011;45733;52.668;6.860;2023-03-31T13:18:59;0.70;;;0.70;;
59856;SDS011;45733;52.668;6.860;2023-03-31T13:21:25;0.60;;;0.60;;
59856;SDS011;45733;52.668;6.860;2023-03-31T13:23:51;0.70;;;0.70;;
59856;SDS011;45733;52.668;6.860;2023-03-31T13:34:30;0.70;;;0.70;;
59856;SDS011;45733;52.668;6.860;2023-03-31T13:59:42;0.70;;;0.70;;
59856;SDS011;45733;52.668;6.860;2023-03-31T14:08:28;0.70;;;0.70;;
59856;SDS011;45733;52.668;6.860;2023-03-31T14:11:29;0.70;;;0.70;;
59856;SDS011;45733;52.668;6.860;2023-03-31T14:16:36;0.65;;;0.65;;
59856;SDS011;45733;52.668;6.860;2023-03-31T14:24:57;0.70;;;0.70;;
59856;SDS011;45733;52.668;6.860;2023-03-31T14:30:11;0.70;;;0.70;;
59856;SDS011;45733;52.668;6.860;2023-03-31T14:35:41;0.70;;;0.70;;
59856;SDS011;45733;52.668;6.860;2023-03-31T14:38:19;0.70;;;0.70;;
59856;SDS011;45733;52.668;6.860;2023-03-31T14:40:47;0.70;;;0.70;;
59856;SDS011;45733;52.668;6.860;2023-03-31T14:43:21;0.70;;;0.70;;
59856;SDS011;45733;52.668;6.860;2023-03-31T14:45:58;0.70;;;0.70;;
59856;SDS011;45733;52.668;6.860;2023-03-31T14:48:29;0.70;;;0.70;;
59856;SDS011;45733;52.668;6.860;2023-03-31T14:50:59;0.70;;;0.70;;
59856;SDS011;45733;52.668;6.860;2023-03-31T14:53:26;0.70;;;0.70;;
59856;SDS011;45733;52.668;6.860;2023-03-31T14:56:09;0.70;;;0.70;;
59856;SDS011;45733;52.668;6.860;2023-03-31T14:58:42;0.80;;;0.80;;
59856;SDS011;45733;52.668;6.860;2023-03-31T15:01:13;0.70;;;0.70;;
59856;SDS011;45733;52.668;6.860;2023-03-31T15:03:43;0.70;;;0.70;;
59856;SDS011;45733;52.668;6.860;2023-03-31T15:06:10;0.65;;;0.65;;
59856;SDS011;45733;52.668;6.860;2023-03-31T15:08:36;0.70;;;0.70;;
59856;SDS011;45733;52.668;6.860;2023-03-31T15:11:07;0.70;;;0.70;;
59856;SDS011;45733;52.668;6.860;2023-03-31T15:13:40;0.70;;;0.70;;
59856;SDS011;45733;52.668;6.860;2023-03-31T15:18:56;0.70;;;0.70;;
59856;SDS011;45733;52.668;6.860;2023-03-31T15:21:24;0.60;;;0.60;;
59856;SDS011;45733;52.668;6.860;2023-03-31T15:23:52;0.70;;;0.70;;
59856;SDS011;45733;52.668;6.860;2023-03-31T15:26:20;0.70;;;0.70;;
59856;SDS011;45733;52.668;6.860;2023-03-31T15:31:22;0.60;;;0.60;;
59856;SDS011;45733;52.668;6.860;2023-03-31T15:33:51;0.70;;;0.70;;
59856;SDS011;45733;52.668;6.860;2023-03-31T15:36:17;0.70;;;0.70;;
59856;SDS011;45733;52.668;6.860;2023-03-31T15:38:45;0.70;;;0.70;;
59856;SDS011;45733;52.668;6.860;2023-03-31T15:41:18;0.70;;;0.70;;
59856;SDS011;45733;52.668;6.860;2023-03-31T15:43:47;0.70;;;0.70;;
59856;SDS011;45733;52.668;6.860;2023-03-31T15:46:18;0.70;;;0.70;;
59856;SDS011;45733;52.668;6.860;2023-03-31T15:48:50;0.70;;;0.70;;
59856;SDS011;45733;52.668;6.860;2023-03-31T15:53:48;0.70;;;0.70;;
59856;SDS011;45733;52.668;6.860;2023-03-31T15:56:24;0.70;;;0.70;;
59856;SDS011;45733;52.668;6.860;2023-03-31T15:58:59;0.70;;;0.70;;
59856;SDS011;45733;52.668;6.860;2023-03-31T16:01:33;0.70;;;0.70;;
59856;SDS011;45733;52.668;6.860;2023-03-31T16:04:06;0.80;;;0.80;;
59856;SDS011;45733;52.668;6.860;2023-03-31T16:09:12;0.68;;;0.68;;
59856;SDS011;45733;52.668;6.860;2023-03-31T16:11:45;0.70;;;0.70;;
59856;SDS011;45733;52.668;6.860;2023-03-31T16:14:15;0.70;;;0.70;;
59856;SDS011;45733;52.668;6.860;2023-03-31T16:16:47;0.70;;;0.70;;
59856;SDS011;45733;52.668;6.860;2023-03-31T16:19:16;0.70;;;0.70;;
59856;SDS011;45733;52.668;6.860;2023-03-31T16:21:45;0.70;;;0.70;;
59856;SDS011;45733;52.668;6.860;2023-03-31T16:24:17;0.70;;;0.70;;
59856;SDS011;45733;52.668;6.860;2023-03-31T16:26:44;0.70;;;0.70;;
59856;SDS011;45733;52.668;6.860;2023-03-31T16:29:18;0.70;;;0.70;;
59856;SDS011;45733;52.668;6.860;2023-03-31T16:31:47;0.70;;;0.70;;
59856;SDS011;45733;52.668;6.860;2023-03-31T16:34:13;0.80;;;0.80;;
59856;SDS011;45733;52.668;6.860;2023-03-31T16:36:39;0.70;;;0.70;;
59856;SDS011;45733;52.668;6.860;2023-03-31T16:39:05;0.70;;;0.70;;
59856;SDS011;45733;52.668;6.860;2023-03-31T16:41:31;0.70;;;0.70;;
59856;SDS011;45733;52.668;6.860;2023-03-31T16:43:58;0.73;;;0.73;;
59856;SDS011;45733;52.668;6.860;2023-03-31T16:46:24;0.70;;;0.70;;
59856;SDS011;45733;52.668;6.860;2023-03-31T16:48:50;0.70;;;0.70;;
59856;SDS011;45733;52.668;6.860;2023-03-31T16:51:17;0.70;;;0.70;;
59856;SDS011;45733;52.668;6.860;2023-03-31T16:53:43;0.68;;;0.68;;
59856;SDS011;45733;52.668;6.860;2023-03-31T16:56:10;0.70;;;0.70;;
59856;SDS011;45733;52.668;6.860;2023-03-31T16:58:36;0.70;;;0.70;;
59856;SDS011;45733;52.668;6.860;2023-03-31T17:01:03;0.70;;;0.70;;
59856;SDS011;45733;52.668;6.860;2023-03-31T17:03:30;0.70;;;0.70;;
59856;SDS011;45733;52.668;6.860;2023-03-31T17:05:56;0.70;;;0.70;;
59856;SDS011;45733;52.668;6.860;2023-03-31T17:08:24;0.70;;;0.70;;
59856;SDS011;45733;52.668;6.860;2023-03-31T17:13:28;0.70;;;0.70;;
59856;SDS011;45733;52.668;6.860;2023-03-31T17:15:56;0.80;;;0.80;;
59856;SDS011;45733;52.668;6.860;2023-03-31T17:18:23;0.60;;;0.60;;
59856;SDS011;45733;52.668;6.860;2023-03-31T17:20:49;0.70;;;0.70;;
59856;SDS011;45733;52.668;6.860;2023-03-31T17:23:17;0.60;;;0.60;;
59856;SDS011;45733;52.668;6.860;2023-03-31T17:25:51;0.70;;;0.70;;
59856;SDS011;45733;52.668;6.860;2023-03-31T17:28:17;0.68;;;0.68;;
59856;SDS011;45733;52.668;6.860;2023-03-31T17:30:43;0.60;;;0.60;;
59856;SDS011;45733;52.668;6.860;2023-03-31T17:33:12;0.70;;;0.70;;
59856;SDS011;45733;52.668;6.860;2023-03-31T17:35:41;0.60;;;0.60;;
59856;SDS011;45733;52.668;6.860;2023-03-31T17:38:07;0.70;;;0.70;;
59856;SDS011;45733;52.668;6.860;2023-03-31T17:40:36;0.60;;;0.60;;
59856;SDS011;45733;52.668;6.860;2023-03-31T17:43:02;0.70;;;0.70;;
59856;SDS011;45733;52.668;6.860;2023-03-31T17:45:28;0.60;;;0.60;;
59856;SDS011;45733;52.668;6.860;2023-03-31T17:47:56;0.70;;;0.70;;
59856;SDS011;45733;52.668;6.860;2023-03-31T17:50:23;0.65;;;0.65;;
59856;SDS011;45733;52.668;6.860;2023-03-31T17:52:49;0.70;;;0.70;;
59856;SDS011;45733;52.668;6.860;2023-03-31T17:55:15;0.68;;;0.68;;
59856;SDS011;45733;52.668;6.860;2023-03-31T17:57:42;0.70;;;0.70;;
59856;SDS011;45733;52.668;6.860;2023-03-31T18:00:08;0.70;;;0.70;;
59856;SDS011;45733;52.668;6.860;2023-03-31T18:02:34;0.60;;;0.60;;
59856;SDS011;45733;52.668;6.860;2023-03-31T18:05:01;0.68;;;0.68;;
59856;SDS011;45733;52.668;6.860;2023-03-31T18:07:28;0.70;;;0.70;;
59856;SDS011;45733;52.668;6.860;2023-03-31T18:09:54;0.70;;;0.70;;
59856;SDS011;45733;52.668;6.860;2023-03-31T18:12:20;0.70;;;0.70;;
59856;SDS011;45733;52.668;6.860;2023-03-31T18:14:46;0.70;;;0.70;;